sensor_id;sensor_type;location;lat;lon;timestamp;temperature;humidity
61765;DHT22;50188;48.114;-1.388;2022-12-04T00:01:39;4.40;96.30
61765;DHT22;50188;48.114;-1.388;2022-12-04T00:04:05;4.30;96.00
61765;DHT22;50188;48.114;-1.388;2022-12-04T00:06:31;4.30;96.10
61765;DHT22;50188;48.114;-1.388;2022-12-04T00:08:58;4.30;96.00
61765;DHT22;50188;48.114;-1.388;2022-12-04T00:11:25;4.40;96.20
61765;DHT22;50188;48.114;-1.388;2022-12-04T00:13:51;4.30;95.50
61765;DHT22;50188;48.114;-1.388;2022-12-04T00:16:17;4.30;95.60
61765;DHT22;50188;48.114;-1.388;2022-12-04T00:18:43;4.30;95.60
61765;DHT22;50188;48.114;-1.388;2022-12-04T00:21:10;4.20;95.80
61765;DHT22;50188;48.114;-1.388;2022-12-04T00:23:36;4.20;95.70
61765;DHT22;50188;48.114;-1.388;2022-12-04T00:26:06;4.20;95.90
61765;DHT22;50188;48.114;-1.388;2022-12-04T00:28:32;4.20;96.00
61765;DHT22;50188;48.114;-1.388;2022-12-04T00:30:58;4.10;96.10
61765;DHT22;50188;48.114;-1.388;2022-12-04T00:33:23;4.10;96.20
61765;DHT22;50188;48.114;-1.388;2022-12-04T00:35:59;4.20;96.20
61765;DHT22;50188;48.114;-1.388;2022-12-04T00:38:25;4.20;96.20
61765;DHT22;50188;48.114;-1.388;2022-12-04T00:40:50;4.10;96.10
61765;DHT22;50188;48.114;-1.388;2022-12-04T00:43:16;4.20;96.20
61765;DHT22;50188;48.114;-1.388;2022-12-04T00:45:42;4.20;96.00
61765;DHT22;50188;48.114;-1.388;2022-12-04T00:48:07;4.20;96.10
61765;DHT22;50188;48.114;-1.388;2022-12-04T00:50:34;4.20;96.20
61765;DHT22;50188;48.114;-1.388;2022-12-04T00:52:59;4.20;96.20
61765;DHT22;50188;48.114;-1.388;2022-12-04T00:55:25;4.20;96.50
61765;DHT22;50188;48.114;-1.388;2022-12-04T00:57:50;4.30;96.60
61765;DHT22;50188;48.114;-1.388;2022-12-04T01:00:16;4.30;96.60
61765;DHT22;50188;48.114;-1.388;2022-12-04T01:02:42;4.20;96.90
61765;DHT22;50188;48.114;-1.388;2022-12-04T01:05:08;4.20;96.70
61765;DHT22;50188;48.114;-1.388;2022-12-04T01:07:33;4.30;96.90
61765;DHT22;50188;48.114;-1.388;2022-12-04T01:09:59;4.20;96.30
61765;DHT22;50188;48.114;-1.388;2022-12-04T01:12:24;4.20;96.40
61765;DHT22;50188;48.114;-1.388;2022-12-04T01:14:50;4.20;96.50
61765;DHT22;50188;48.114;-1.388;2022-12-04T01:17:15;4.10;96.40
61765;DHT22;50188;48.114;-1.388;2022-12-04T01:19:41;4.10;96.80
61765;DHT22;50188;48.114;-1.388;2022-12-04T01:22:06;4.10;96.60
61765;DHT22;50188;48.114;-1.388;2022-12-04T01:24:32;4.10;96.50
61765;DHT22;50188;48.114;-1.388;2022-12-04T01:26:58;4.10;96.80
61765;DHT22;50188;48.114;-1.388;2022-12-04T01:29:23;4.20;97.20
61765;DHT22;50188;48.114;-1.388;2022-12-04T01:31:48;4.20;96.60
61765;DHT22;50188;48.114;-1.388;2022-12-04T01:34:14;4.20;96.40
61765;DHT22;50188;48.114;-1.388;2022-12-04T01:36:39;4.20;96.70
61765;DHT22;50188;48.114;-1.388;2022-12-04T01:39:05;4.10;96.30
61765;DHT22;50188;48.114;-1.388;2022-12-04T01:41:31;4.10;96.30
61765;DHT22;50188;48.114;-1.388;2022-12-04T01:44:08;4.00;96.30
61765;DHT22;50188;48.114;-1.388;2022-12-04T01:46:34;4.00;96.40
61765;DHT22;50188;48.114;-1.388;2022-12-04T01:48:59;4.10;96.50
61765;DHT22;50188;48.114;-1.388;2022-12-04T01:51:28;4.00;96.50
61765;DHT22;50188;48.114;-1.388;2022-12-04T01:53:55;4.00;96.60
61765;DHT22;50188;48.114;-1.388;2022-12-04T01:56:23;4.00;96.10
61765;DHT22;50188;48.114;-1.388;2022-12-04T01:58:51;3.90;96.00
61765;DHT22;50188;48.114;-1.388;2022-12-04T02:01:18;3.90;96.10
61765;DHT22;50188;48.114;-1.388;2022-12-04T02:03:43;4.00;96.20
61765;DHT22;50188;48.114;-1.388;2022-12-04T02:06:09;4.00;95.60
61765;DHT22;50188;48.114;-1.388;2022-12-04T02:08:35;4.00;95.80
61765;DHT22;50188;48.114;-1.388;2022-12-04T02:11:07;4.00;95.80
61765;DHT22;50188;48.114;-1.388;2022-12-04T02:13:36;4.00;95.90
61765;DHT22;50188;48.114;-1.388;2022-12-04T02:16:07;4.10;96.00
61765;DHT22;50188;48.114;-1.388;2022-12-04T02:18:39;4.20;96.10
61765;DHT22;50188;48.114;-1.388;2022-12-04T02:21:20;4.30;95.80
61765;DHT22;50188;48.114;-1.388;2022-12-04T02:23:54;4.30;95.50
61765;DHT22;50188;48.114;-1.388;2022-12-04T02:26:32;4.20;95.70
61765;DHT22;50188;48.114;-1.388;2022-12-04T02:31:50;4.30;95.70
61765;DHT22;50188;48.114;-1.388;2022-12-04T02:34:25;4.30;95.70
61765;DHT22;50188;48.114;-1.388;2022-12-04T02:36:52;4.30;95.70
61765;DHT22;50188;48.114;-1.388;2022-12-04T02:39:29;4.30;95.80
61765;DHT22;50188;48.114;-1.388;2022-12-04T02:41:58;4.40;95.90
61765;DHT22;50188;48.114;-1.388;2022-12-04T02:44:33;4.30;95.60
61765;DHT22;50188;48.114;-1.388;2022-12-04T02:47:01;4.30;96.20
61765;DHT22;50188;48.114;-1.388;2022-12-04T02:49:34;4.40;96.10
61765;DHT22;50188;48.114;-1.388;2022-12-04T02:52:01;4.40;96.40
61765;DHT22;50188;48.114;-1.388;2022-12-04T02:54:30;4.50;96.30
61765;DHT22;50188;48.114;-1.388;2022-12-04T02:56:57;4.50;96.30
61765;DHT22;50188;48.114;-1.388;2022-12-04T02:59:31;4.50;96.30
61765;DHT22;50188;48.114;-1.388;2022-12-04T03:02:00;4.60;96.20
61765;DHT22;50188;48.114;-1.388;2022-12-04T03:04:27;4.50;95.60
61765;DHT22;50188;48.114;-1.388;2022-12-04T03:06:56;4.40;95.50
61765;DHT22;50188;48.114;-1.388;2022-12-04T03:12:10;4.40;96.00
61765;DHT22;50188;48.114;-1.388;2022-12-04T03:14:40;4.50;95.80
61765;DHT22;50188;48.114;-1.388;2022-12-04T03:17:12;4.60;95.70
61765;DHT22;50188;48.114;-1.388;2022-12-04T03:19:45;4.50;95.40
61765;DHT22;50188;48.114;-1.388;2022-12-04T03:22:14;4.50;95.60
61765;DHT22;50188;48.114;-1.388;2022-12-04T03:24:44;4.40;95.50
61765;DHT22;50188;48.114;-1.388;2022-12-04T03:27:14;4.30;95.30
61765;DHT22;50188;48.114;-1.388;2022-12-04T03:29:42;4.30;95.50
61765;DHT22;50188;48.114;-1.388;2022-12-04T03:32:16;4.30;95.60
61765;DHT22;50188;48.114;-1.388;2022-12-04T03:34:55;4.30;95.20
61765;DHT22;50188;48.114;-1.388;2022-12-04T03:37:24;4.30;95.50
61765;DHT22;50188;48.114;-1.388;2022-12-04T03:40:02;4.30;95.30
61765;DHT22;50188;48.114;-1.388;2022-12-04T03:42:42;4.30;95.20
61765;DHT22;50188;48.114;-1.388;2022-12-04T03:45:09;4.30;95.30
61765;DHT22;50188;48.114;-1.388;2022-12-04T03:47:38;4.20;95.30
61765;DHT22;50188;48.114;-1.388;2022-12-04T03:50:08;4.30;95.60
61765;DHT22;50188;48.114;-1.388;2022-12-04T03:52:44;4.30;95.40
61765;DHT22;50188;48.114;-1.388;2022-12-04T03:55:20;4.40;95.40
61765;DHT22;50188;48.114;-1.388;2022-12-04T03:57:47;4.40;95.40
61765;DHT22;50188;48.114;-1.388;2022-12-04T04:00:15;4.40;95.30
61765;DHT22;50188;48.114;-1.388;2022-12-04T04:02:43;4.40;95.40
61765;DHT22;50188;48.114;-1.388;2022-12-04T04:05:10;4.50;95.50
61765;DHT22;50188;48.114;-1.388;2022-12-04T04:07:44;4.40;95.20
61765;DHT22;50188;48.114;-1.388;2022-12-04T04:10:12;4.40;95.30
61765;DHT22;50188;48.114;-1.388;2022-12-04T04:12:40;4.40;95.40
61765;DHT22;50188;48.114;-1.388;2022-12-04T04:15:07;4.40;95.60
61765;DHT22;50188;48.114;-1.388;2022-12-04T04:17:54;4.40;95.50
61765;DHT22;50188;48.114;-1.388;2022-12-04T04:20:42;4.40;95.50
61765;DHT22;50188;48.114;-1.388;2022-12-04T04:23:28;4.30;95.80
61765;DHT22;50188;48.114;-1.388;2022-12-04T04:26:15;4.40;95.60
61765;DHT22;50188;48.114;-1.388;2022-12-04T04:28:41;4.30;95.50
61765;DHT22;50188;48.114;-1.388;2022-12-04T04:31:44;4.30;95.60
61765;DHT22;50188;48.114;-1.388;2022-12-04T04:36:56;4.40;95.60
61765;DHT22;50188;48.114;-1.388;2022-12-04T04:39:37;4.30;95.60
61765;DHT22;50188;48.114;-1.388;2022-12-04T04:42:08;4.20;95.60
61765;DHT22;50188;48.114;-1.388;2022-12-04T04:44:38;4.20;95.60
61765;DHT22;50188;48.114;-1.388;2022-12-04T04:47:05;4.20;95.50
61765;DHT22;50188;48.114;-1.388;2022-12-04T04:49:32;4.20;95.80
61765;DHT22;50188;48.114;-1.388;2022-12-04T04:51:58;4.20;95.70
61765;DHT22;50188;48.114;-1.388;2022-12-04T04:54:24;4.20;95.80
61765;DHT22;50188;48.114;-1.388;2022-12-04T04:56:50;4.30;95.80
61765;DHT22;50188;48.114;-1.388;2022-12-04T04:59:15;4.30;95.50
61765;DHT22;50188;48.114;-1.388;2022-12-04T05:01:42;4.30;95.70
61765;DHT22;50188;48.114;-1.388;2022-12-04T05:04:09;4.30;95.80
61765;DHT22;50188;48.114;-1.388;2022-12-04T05:06:34;4.30;95.80
61765;DHT22;50188;48.114;-1.388;2022-12-04T05:09:00;4.20;95.80
61765;DHT22;50188;48.114;-1.388;2022-12-04T05:11:25;4.20;96.20
61765;DHT22;50188;48.114;-1.388;2022-12-04T05:13:51;4.20;96.10
61765;DHT22;50188;48.114;-1.388;2022-12-04T05:16:17;4.20;96.40
61765;DHT22;50188;48.114;-1.388;2022-12-04T05:18:42;4.30;96.00
61765;DHT22;50188;48.114;-1.388;2022-12-04T05:21:28;4.10;96.00
61765;DHT22;50188;48.114;-1.388;2022-12-04T05:23:53;4.20;96.40
61765;DHT22;50188;48.114;-1.388;2022-12-04T05:26:19;4.20;96.20
61765;DHT22;50188;48.114;-1.388;2022-12-04T05:28:44;4.20;96.20
61765;DHT22;50188;48.114;-1.388;2022-12-04T05:31:10;4.20;96.30
61765;DHT22;50188;48.114;-1.388;2022-12-04T05:33:35;4.20;96.60
61765;DHT22;50188;48.114;-1.388;2022-12-04T05:36:02;4.10;96.40
61765;DHT22;50188;48.114;-1.388;2022-12-04T05:38:28;4.30;96.40
61765;DHT22;50188;48.114;-1.388;2022-12-04T05:40:54;4.30;96.30
61765;DHT22;50188;48.114;-1.388;2022-12-04T05:43:21;4.20;96.60
61765;DHT22;50188;48.114;-1.388;2022-12-04T05:45:47;4.20;96.70
61765;DHT22;50188;48.114;-1.388;2022-12-04T05:48:12;4.20;96.60
61765;DHT22;50188;48.114;-1.388;2022-12-04T05:50:38;4.20;96.60
61765;DHT22;50188;48.114;-1.388;2022-12-04T05:53:03;4.20;96.80
61765;DHT22;50188;48.114;-1.388;2022-12-04T05:55:29;4.20;96.70
61765;DHT22;50188;48.114;-1.388;2022-12-04T05:57:54;4.20;96.90
61765;DHT22;50188;48.114;-1.388;2022-12-04T06:00:19;4.20;96.80
61765;DHT22;50188;48.114;-1.388;2022-12-04T06:02:45;4.10;96.80
61765;DHT22;50188;48.114;-1.388;2022-12-04T06:05:10;4.10;97.10
61765;DHT22;50188;48.114;-1.388;2022-12-04T06:07:36;4.20;97.00
61765;DHT22;50188;48.114;-1.388;2022-12-04T06:10:02;4.10;96.80
61765;DHT22;50188;48.114;-1.388;2022-12-04T06:12:28;4.20;96.90
61765;DHT22;50188;48.114;-1.388;2022-12-04T06:14:53;4.20;96.90
61765;DHT22;50188;48.114;-1.388;2022-12-04T06:17:19;4.20;97.00
61765;DHT22;50188;48.114;-1.388;2022-12-04T06:19:44;4.10;96.70
61765;DHT22;50188;48.114;-1.388;2022-12-04T06:22:10;4.10;96.90
61765;DHT22;50188;48.114;-1.388;2022-12-04T06:24:35;4.00;97.00
61765;DHT22;50188;48.114;-1.388;2022-12-04T06:27:01;4.10;96.80
61765;DHT22;50188;48.114;-1.388;2022-12-04T06:29:26;4.10;97.00
61765;DHT22;50188;48.114;-1.388;2022-12-04T06:31:52;4.10;96.90
61765;DHT22;50188;48.114;-1.388;2022-12-04T06:34:17;4.00;97.00
61765;DHT22;50188;48.114;-1.388;2022-12-04T06:36:43;4.10;97.10
61765;DHT22;50188;48.114;-1.388;2022-12-04T06:39:08;4.00;97.10
61765;DHT22;50188;48.114;-1.388;2022-12-04T06:41:34;3.90;97.30
61765;DHT22;50188;48.114;-1.388;2022-12-04T06:43:59;4.00;97.30
61765;DHT22;50188;48.114;-1.388;2022-12-04T06:46:26;4.10;97.40
61765;DHT22;50188;48.114;-1.388;2022-12-04T06:48:53;4.10;97.00
61765;DHT22;50188;48.114;-1.388;2022-12-04T06:51:19;4.10;97.10
61765;DHT22;50188;48.114;-1.388;2022-12-04T06:53:45;4.00;97.10
61765;DHT22;50188;48.114;-1.388;2022-12-04T06:56:12;4.00;97.40
61765;DHT22;50188;48.114;-1.388;2022-12-04T06:58:38;4.00;97.10
61765;DHT22;50188;48.114;-1.388;2022-12-04T07:01:05;4.00;96.80
61765;DHT22;50188;48.114;-1.388;2022-12-04T07:03:31;4.00;97.00
61765;DHT22;50188;48.114;-1.388;2022-12-04T07:05:57;4.00;97.10
61765;DHT22;50188;48.114;-1.388;2022-12-04T07:08:22;4.00;97.10
61765;DHT22;50188;48.114;-1.388;2022-12-04T07:10:47;4.00;97.00
61765;DHT22;50188;48.114;-1.388;2022-12-04T07:13:13;4.00;96.90
61765;DHT22;50188;48.114;-1.388;2022-12-04T07:15:38;4.00;97.00
61765;DHT22;50188;48.114;-1.388;2022-12-04T07:18:04;4.00;96.80
61765;DHT22;50188;48.114;-1.388;2022-12-04T07:20:29;4.10;97.00
61765;DHT22;50188;48.114;-1.388;2022-12-04T07:22:55;4.20;96.60
61765;DHT22;50188;48.114;-1.388;2022-12-04T07:25:21;4.10;96.70
61765;DHT22;50188;48.114;-1.388;2022-12-04T07:27:46;4.10;96.90
61765;DHT22;50188;48.114;-1.388;2022-12-04T07:30:12;4.10;96.80
61765;DHT22;50188;48.114;-1.388;2022-12-04T07:32:37;4.10;97.00
61765;DHT22;50188;48.114;-1.388;2022-12-04T07:35:03;4.10;97.00
61765;DHT22;50188;48.114;-1.388;2022-12-04T07:37:29;4.20;96.80
61765;DHT22;50188;48.114;-1.388;2022-12-04T07:39:54;4.10;96.80
61765;DHT22;50188;48.114;-1.388;2022-12-04T07:42:20;4.10;96.80
61765;DHT22;50188;48.114;-1.388;2022-12-04T07:44:45;4.10;96.80
61765;DHT22;50188;48.114;-1.388;2022-12-04T07:47:11;4.10;97.00
61765;DHT22;50188;48.114;-1.388;2022-12-04T07:49:37;4.10;97.00
61765;DHT22;50188;48.114;-1.388;2022-12-04T07:52:02;4.20;97.10
61765;DHT22;50188;48.114;-1.388;2022-12-04T07:54:28;4.20;97.00
61765;DHT22;50188;48.114;-1.388;2022-12-04T07:56:53;4.20;96.70
61765;DHT22;50188;48.114;-1.388;2022-12-04T07:59:19;4.20;96.80
61765;DHT22;50188;48.114;-1.388;2022-12-04T08:01:44;4.10;96.80
61765;DHT22;50188;48.114;-1.388;2022-12-04T08:04:10;4.10;96.90
61765;DHT22;50188;48.114;-1.388;2022-12-04T08:06:36;4.10;97.10
61765;DHT22;50188;48.114;-1.388;2022-12-04T08:09:02;4.10;97.00
61765;DHT22;50188;48.114;-1.388;2022-12-04T08:11:28;4.10;97.10
61765;DHT22;50188;48.114;-1.388;2022-12-04T08:13:54;4.20;97.00
61765;DHT22;50188;48.114;-1.388;2022-12-04T08:16:20;4.20;96.90
61765;DHT22;50188;48.114;-1.388;2022-12-04T08:18:45;4.10;96.90
61765;DHT22;50188;48.114;-1.388;2022-12-04T08:21:14;4.20;97.10
61765;DHT22;50188;48.114;-1.388;2022-12-04T08:23:40;4.10;97.10
61765;DHT22;50188;48.114;-1.388;2022-12-04T08:26:07;4.20;97.10
61765;DHT22;50188;48.114;-1.388;2022-12-04T08:28:32;4.30;97.40
61765;DHT22;50188;48.114;-1.388;2022-12-04T08:31:02;4.30;97.10
61765;DHT22;50188;48.114;-1.388;2022-12-04T08:33:28;4.30;96.90
61765;DHT22;50188;48.114;-1.388;2022-12-04T08:35:54;4.40;96.90
61765;DHT22;50188;48.114;-1.388;2022-12-04T08:38:19;4.40;96.50
61765;DHT22;50188;48.114;-1.388;2022-12-04T08:40:45;4.30;96.70
61765;DHT22;50188;48.114;-1.388;2022-12-04T08:43:10;4.50;96.90
61765;DHT22;50188;48.114;-1.388;2022-12-04T08:45:36;4.50;96.60
61765;DHT22;50188;48.114;-1.388;2022-12-04T08:48:01;4.50;96.90
61765;DHT22;50188;48.114;-1.388;2022-12-04T08:50:27;4.40;96.80
61765;DHT22;50188;48.114;-1.388;2022-12-04T08:52:52;4.40;96.90
61765;DHT22;50188;48.114;-1.388;2022-12-04T08:55:18;4.40;96.60
61765;DHT22;50188;48.114;-1.388;2022-12-04T08:57:43;4.30;96.90
61765;DHT22;50188;48.114;-1.388;2022-12-04T09:00:09;4.30;97.10
61765;DHT22;50188;48.114;-1.388;2022-12-04T09:02:35;4.30;97.00
61765;DHT22;50188;48.114;-1.388;2022-12-04T09:05:00;4.30;97.20
61765;DHT22;50188;48.114;-1.388;2022-12-04T09:07:26;4.30;97.40
61765;DHT22;50188;48.114;-1.388;2022-12-04T09:09:51;4.30;97.10
61765;DHT22;50188;48.114;-1.388;2022-12-04T09:12:16;4.30;97.00
61765;DHT22;50188;48.114;-1.388;2022-12-04T09:14:43;4.40;97.40
61765;DHT22;50188;48.114;-1.388;2022-12-04T09:17:08;4.40;97.00
61765;DHT22;50188;48.114;-1.388;2022-12-04T09:19:34;4.50;96.90
61765;DHT22;50188;48.114;-1.388;2022-12-04T09:22:01;4.50;96.80
61765;DHT22;50188;48.114;-1.388;2022-12-04T09:24:28;4.50;97.10
61765;DHT22;50188;48.114;-1.388;2022-12-04T09:26:54;4.50;97.00
61765;DHT22;50188;48.114;-1.388;2022-12-04T09:29:19;4.40;97.00
61765;DHT22;50188;48.114;-1.388;2022-12-04T09:31:45;4.40;97.10
61765;DHT22;50188;48.114;-1.388;2022-12-04T09:34:10;4.50;97.50
61765;DHT22;50188;48.114;-1.388;2022-12-04T09:36:36;4.60;97.40
61765;DHT22;50188;48.114;-1.388;2022-12-04T09:39:01;4.60;96.90
61765;DHT22;50188;48.114;-1.388;2022-12-04T09:41:44;4.60;96.80
61765;DHT22;50188;48.114;-1.388;2022-12-04T09:44:16;4.60;96.80
61765;DHT22;50188;48.114;-1.388;2022-12-04T09:46:47;4.70;96.80
61765;DHT22;50188;48.114;-1.388;2022-12-04T09:49:16;4.70;96.60
61765;DHT22;50188;48.114;-1.388;2022-12-04T09:51:44;4.70;96.70
61765;DHT22;50188;48.114;-1.388;2022-12-04T09:54:12;4.70;96.70
61765;DHT22;50188;48.114;-1.388;2022-12-04T09:56:38;4.80;96.70
61765;DHT22;50188;48.114;-1.388;2022-12-04T09:59:14;4.80;96.60
61765;DHT22;50188;48.114;-1.388;2022-12-04T10:01:45;4.90;96.80
61765;DHT22;50188;48.114;-1.388;2022-12-04T10:04:11;4.90;96.70
61765;DHT22;50188;48.114;-1.388;2022-12-04T10:06:47;4.90;96.40
61765;DHT22;50188;48.114;-1.388;2022-12-04T10:09:24;4.90;96.30
61765;DHT22;50188;48.114;-1.388;2022-12-04T10:11:53;4.80;95.70
61765;DHT22;50188;48.114;-1.388;2022-12-04T10:20:15;4.80;96.10
61765;DHT22;50188;48.114;-1.388;2022-12-04T10:22:44;4.90;96.10
61765;DHT22;50188;48.114;-1.388;2022-12-04T10:25:14;5.10;96.00
61765;DHT22;50188;48.114;-1.388;2022-12-04T10:27:43;5.10;95.40
61765;DHT22;50188;48.114;-1.388;2022-12-04T10:30:21;5.30;95.30
61765;DHT22;50188;48.114;-1.388;2022-12-04T10:32:47;5.40;95.70
61765;DHT22;50188;48.114;-1.388;2022-12-04T10:35:29;5.40;95.90
61765;DHT22;50188;48.114;-1.388;2022-12-04T10:38:03;5.30;94.70
61765;DHT22;50188;48.114;-1.388;2022-12-04T10:40:30;5.40;95.40
61765;DHT22;50188;48.114;-1.388;2022-12-04T10:42:59;5.30;95.10
61765;DHT22;50188;48.114;-1.388;2022-12-04T10:45:28;5.30;95.50
61765;DHT22;50188;48.114;-1.388;2022-12-04T10:47:53;5.30;96.20
61765;DHT22;50188;48.114;-1.388;2022-12-04T10:50:20;5.20;95.20
61765;DHT22;50188;48.114;-1.388;2022-12-04T10:52:47;5.20;95.80
61765;DHT22;50188;48.114;-1.388;2022-12-04T10:55:12;5.20;96.10
61765;DHT22;50188;48.114;-1.388;2022-12-04T10:57:41;5.20;95.90
61765;DHT22;50188;48.114;-1.388;2022-12-04T11:02:52;5.20;96.40
61765;DHT22;50188;48.114;-1.388;2022-12-04T11:05:24;5.30;96.60
61765;DHT22;50188;48.114;-1.388;2022-12-04T11:07:50;5.20;96.00
61765;DHT22;50188;48.114;-1.388;2022-12-04T11:10:17;5.10;96.20
61765;DHT22;50188;48.114;-1.388;2022-12-04T11:12:55;5.00;96.20
61765;DHT22;50188;48.114;-1.388;2022-12-04T11:15:21;5.00;96.20
61765;DHT22;50188;48.114;-1.388;2022-12-04T11:17:47;5.00;96.90
61765;DHT22;50188;48.114;-1.388;2022-12-04T11:20:17;5.10;97.00
61765;DHT22;50188;48.114;-1.388;2022-12-04T11:22:48;5.20;96.40
61765;DHT22;50188;48.114;-1.388;2022-12-04T11:25:15;5.20;96.50
61765;DHT22;50188;48.114;-1.388;2022-12-04T11:27:43;5.00;95.40
61765;DHT22;50188;48.114;-1.388;2022-12-04T11:30:12;4.90;95.80
61765;DHT22;50188;48.114;-1.388;2022-12-04T11:32:38;5.00;95.90
61765;DHT22;50188;48.114;-1.388;2022-12-04T11:35:12;4.90;95.80
61765;DHT22;50188;48.114;-1.388;2022-12-04T11:37:38;5.00;96.50
61765;DHT22;50188;48.114;-1.388;2022-12-04T11:40:05;5.10;96.40
61765;DHT22;50188;48.114;-1.388;2022-12-04T11:42:31;5.10;96.20
61765;DHT22;50188;48.114;-1.388;2022-12-04T11:45:01;5.10;96.20
61765;DHT22;50188;48.114;-1.388;2022-12-04T11:47:28;5.20;95.60
61765;DHT22;50188;48.114;-1.388;2022-12-04T11:50:02;5.20;95.60
61765;DHT22;50188;48.114;-1.388;2022-12-04T11:52:44;5.00;95.10
61765;DHT22;50188;48.114;-1.388;2022-12-04T11:55:16;5.10;96.10
61765;DHT22;50188;48.114;-1.388;2022-12-04T11:57:57;5.00;95.40
61765;DHT22;50188;48.114;-1.388;2022-12-04T12:00:27;5.10;95.80
61765;DHT22;50188;48.114;-1.388;2022-12-04T12:08:49;5.10;96.40
61765;DHT22;50188;48.114;-1.388;2022-12-04T12:11:20;5.10;96.20
61765;DHT22;50188;48.114;-1.388;2022-12-04T12:13:51;5.10;96.40
61765;DHT22;50188;48.114;-1.388;2022-12-04T12:16:35;5.10;96.10
61765;DHT22;50188;48.114;-1.388;2022-12-04T12:19:25;5.10;96.20
61765;DHT22;50188;48.114;-1.388;2022-12-04T12:21:52;5.10;95.30
61765;DHT22;50188;48.114;-1.388;2022-12-04T12:27:06;5.10;95.90
61765;DHT22;50188;48.114;-1.388;2022-12-04T12:35:12;5.10;96.40
61765;DHT22;50188;48.114;-1.388;2022-12-04T12:37:46;5.10;96.30
61765;DHT22;50188;48.114;-1.388;2022-12-04T12:40:14;5.10;96.80
61765;DHT22;50188;48.114;-1.388;2022-12-04T12:42:52;5.10;96.80
61765;DHT22;50188;48.114;-1.388;2022-12-04T12:45:37;5.00;96.90
61765;DHT22;50188;48.114;-1.388;2022-12-04T12:48:18;5.10;96.70
61765;DHT22;50188;48.114;-1.388;2022-12-04T12:50:47;5.10;97.30
61765;DHT22;50188;48.114;-1.388;2022-12-04T12:53:15;5.00;96.60
61765;DHT22;50188;48.114;-1.388;2022-12-04T12:55:44;5.00;97.10
61765;DHT22;50188;48.114;-1.388;2022-12-04T12:58:18;5.00;97.00
61765;DHT22;50188;48.114;-1.388;2022-12-04T13:00:46;5.10;98.00
61765;DHT22;50188;48.114;-1.388;2022-12-04T13:03:26;5.10;97.20
61765;DHT22;50188;48.114;-1.388;2022-12-04T13:05:55;5.10;96.70
61765;DHT22;50188;48.114;-1.388;2022-12-04T13:08:34;5.00;97.00
61765;DHT22;50188;48.114;-1.388;2022-12-04T13:11:06;5.00;97.40
61765;DHT22;50188;48.114;-1.388;2022-12-04T13:13:37;5.10;97.70
61765;DHT22;50188;48.114;-1.388;2022-12-04T13:16:16;5.00;97.40
61765;DHT22;50188;48.114;-1.388;2022-12-04T13:18:45;5.10;97.80
61765;DHT22;50188;48.114;-1.388;2022-12-04T13:21:27;5.10;97.30
61765;DHT22;50188;48.114;-1.388;2022-12-04T13:24:13;4.90;97.10
61765;DHT22;50188;48.114;-1.388;2022-12-04T13:26:44;4.90;97.60
61765;DHT22;50188;48.114;-1.388;2022-12-04T13:29:19;5.00;97.60
61765;DHT22;50188;48.114;-1.388;2022-12-04T13:34:41;4.90;97.30
61765;DHT22;50188;48.114;-1.388;2022-12-04T13:37:18;5.00;97.80
61765;DHT22;50188;48.114;-1.388;2022-12-04T13:40:00;5.00;97.10
61765;DHT22;50188;48.114;-1.388;2022-12-04T13:42:28;5.00;97.10
61765;DHT22;50188;48.114;-1.388;2022-12-04T13:45:11;5.00;96.60
61765;DHT22;50188;48.114;-1.388;2022-12-04T13:47:37;5.00;96.90
61765;DHT22;50188;48.114;-1.388;2022-12-04T13:50:07;5.10;97.00
61765;DHT22;50188;48.114;-1.388;2022-12-04T13:52:40;5.10;97.00
61765;DHT22;50188;48.114;-1.388;2022-12-04T13:55:23;5.00;96.50
61765;DHT22;50188;48.114;-1.388;2022-12-04T13:57:56;5.00;96.80
61765;DHT22;50188;48.114;-1.388;2022-12-04T14:00:35;5.00;97.20
61765;DHT22;50188;48.114;-1.388;2022-12-04T14:03:03;5.00;97.00
61765;DHT22;50188;48.114;-1.388;2022-12-04T14:05:30;5.00;97.00
61765;DHT22;50188;48.114;-1.388;2022-12-04T14:07:58;5.00;96.80
61765;DHT22;50188;48.114;-1.388;2022-12-04T14:10:26;4.90;96.80
61765;DHT22;50188;48.114;-1.388;2022-12-04T14:13:01;4.90;96.60
61765;DHT22;50188;48.114;-1.388;2022-12-04T14:15:29;5.00;96.70
61765;DHT22;50188;48.114;-1.388;2022-12-04T14:18:03;5.10;97.30
61765;DHT22;50188;48.114;-1.388;2022-12-04T14:20:31;5.10;97.30
61765;DHT22;50188;48.114;-1.388;2022-12-04T14:23:07;5.00;97.00
61765;DHT22;50188;48.114;-1.388;2022-12-04T14:25:37;5.00;97.30
61765;DHT22;50188;48.114;-1.388;2022-12-04T14:28:20;5.00;97.20
61765;DHT22;50188;48.114;-1.388;2022-12-04T14:30:55;4.90;97.20
61765;DHT22;50188;48.114;-1.388;2022-12-04T14:33:22;5.00;97.10
61765;DHT22;50188;48.114;-1.388;2022-12-04T14:35:49;5.00;96.60
61765;DHT22;50188;48.114;-1.388;2022-12-04T14:38:19;5.00;96.60
61765;DHT22;50188;48.114;-1.388;2022-12-04T14:40:47;5.00;96.80
61765;DHT22;50188;48.114;-1.388;2022-12-04T14:43:18;5.00;97.00
61765;DHT22;50188;48.114;-1.388;2022-12-04T14:45:45;5.00;97.10
61765;DHT22;50188;48.114;-1.388;2022-12-04T14:48:17;5.00;97.10
61765;DHT22;50188;48.114;-1.388;2022-12-04T14:50:52;5.00;96.80
61765;DHT22;50188;48.114;-1.388;2022-12-04T14:56:25;5.00;97.00
61765;DHT22;50188;48.114;-1.388;2022-12-04T14:58:52;5.10;97.50
61765;DHT22;50188;48.114;-1.388;2022-12-04T15:01:22;5.10;97.40
61765;DHT22;50188;48.114;-1.388;2022-12-04T15:03:50;5.10;96.80
61765;DHT22;50188;48.114;-1.388;2022-12-04T15:06:27;5.20;97.00
61765;DHT22;50188;48.114;-1.388;2022-12-04T15:08:54;5.10;96.80
61765;DHT22;50188;48.114;-1.388;2022-12-04T15:11:43;5.10;96.40
61765;DHT22;50188;48.114;-1.388;2022-12-04T15:14:37;5.10;96.70
61765;DHT22;50188;48.114;-1.388;2022-12-04T15:17:03;5.10;96.40
61765;DHT22;50188;48.114;-1.388;2022-12-04T15:19:29;5.00;96.70
61765;DHT22;50188;48.114;-1.388;2022-12-04T15:21:54;5.10;96.70
61765;DHT22;50188;48.114;-1.388;2022-12-04T15:24:19;5.00;96.90
61765;DHT22;50188;48.114;-1.388;2022-12-04T15:26:47;5.00;96.80
61765;DHT22;50188;48.114;-1.388;2022-12-04T15:29:16;5.10;96.80
61765;DHT22;50188;48.114;-1.388;2022-12-04T15:31:42;5.10;97.00
61765;DHT22;50188;48.114;-1.388;2022-12-04T15:34:13;5.20;96.80
61765;DHT22;50188;48.114;-1.388;2022-12-04T15:36:47;5.10;96.80
61765;DHT22;50188;48.114;-1.388;2022-12-04T15:39:16;5.10;96.80
61765;DHT22;50188;48.114;-1.388;2022-12-04T15:41:42;5.10;96.70
61765;DHT22;50188;48.114;-1.388;2022-12-04T15:46:53;5.00;96.80
61765;DHT22;50188;48.114;-1.388;2022-12-04T15:49:23;5.10;97.10
61765;DHT22;50188;48.114;-1.388;2022-12-04T15:51:49;5.10;97.00
61765;DHT22;50188;48.114;-1.388;2022-12-04T15:54:21;5.10;96.90
61765;DHT22;50188;48.114;-1.388;2022-12-04T15:57:01;5.10;97.10
61765;DHT22;50188;48.114;-1.388;2022-12-04T15:59:28;5.10;97.20
61765;DHT22;50188;48.114;-1.388;2022-12-04T16:01:54;5.10;97.40
61765;DHT22;50188;48.114;-1.388;2022-12-04T16:04:20;5.10;97.50
61765;DHT22;50188;48.114;-1.388;2022-12-04T16:06:47;5.00;97.60
61765;DHT22;50188;48.114;-1.388;2022-12-04T16:09:21;5.00;97.60
61765;DHT22;50188;48.114;-1.388;2022-12-04T16:11:55;5.10;98.00
61765;DHT22;50188;48.114;-1.388;2022-12-04T16:14:21;5.00;97.80
61765;DHT22;50188;48.114;-1.388;2022-12-04T16:16:47;5.00;97.90
61765;DHT22;50188;48.114;-1.388;2022-12-04T16:19:23;5.00;97.90
61765;DHT22;50188;48.114;-1.388;2022-12-04T16:21:50;5.00;97.90